sensor_id;sensor_type;location;lat;lon;timestamp;pressure;altitude;pressure_sealevel;temperature;humidity
19259;BME280;9763;48.780;9.212;2023-05-12T00:02:51;98077.50;;;16.77;69.04
19259;BME280;9763;48.780;9.212;2023-05-12T00:06:16;98079.16;;;16.78;68.64
19259;BME280;9763;48.780;9.212;2023-05-12T00:09:40;98074.19;;;16.75;69.18
19259;BME280;9763;48.780;9.212;2023-05-12T00:13:03;98074.31;;;16.74;68.80
19259;BME280;9763;48.780;9.212;2023-05-12T00:16:27;98071.97;;;16.71;68.71
19259;BME280;9763;48.780;9.212;2023-05-12T00:19:53;98067.16;;;16.66;69.18
19259;BME280;9763;48.780;9.212;2023-05-12T00:23:16;98059.94;;;16.58;68.64
19259;BME280;9763;48.780;9.212;2023-05-12T00:26:41;98070.91;;;16.64;69.24
19259;BME280;9763;48.780;9.212;2023-05-12T00:30:06;98071.75;;;16.64;69.19
19259;BME280;9763;48.780;9.212;2023-05-12T00:33:30;98080.47;;;16.65;69.06
19259;BME280;9763;48.780;9.212;2023-05-12T00:36:55;98066.31;;;16.66;68.89
19259;BME280;9763;48.780;9.212;2023-05-12T00:40:19;98067.16;;;16.66;68.66
19259;BME280;9763;48.780;9.212;2023-05-12T00:43:43;98077.00;;;16.64;69.13
19259;BME280;9763;48.780;9.212;2023-05-12T00:47:08;98057.97;;;16.61;68.73
19259;BME280;9763;48.780;9.212;2023-05-12T00:50:32;98078.22;;;16.60;68.69
19259;BME280;9763;48.780;9.212;2023-05-12T00:53:57;98071.44;;;16.57;68.87
19259;BME280;9763;48.780;9.212;2023-05-12T00:57:22;98062.84;;;16.55;69.08
19259;BME280;9763;48.780;9.212;2023-05-12T01:00:50;98069.09;;;16.54;69.13
19259;BME280;9763;48.780;9.212;2023-05-12T01:04:14;98071.72;;;16.54;69.27
19259;BME280;9763;48.780;9.212;2023-05-12T01:07:41;98077.16;;;16.53;69.11
19259;BME280;9763;48.780;9.212;2023-05-12T01:11:06;98068.56;;;16.51;69.84
19259;BME280;9763;48.780;9.212;2023-05-12T01:14:30;98069.25;;;16.53;69.30
19259;BME280;9763;48.780;9.212;2023-05-12T01:17:59;98070.94;;;16.54;69.84
19259;BME280;9763;48.780;9.212;2023-05-12T01:21:25;98064.97;;;16.52;69.76
19259;BME280;9763;48.780;9.212;2023-05-12T01:24:53;98036.88;;;16.33;69.56
19259;BME280;9763;48.780;9.212;2023-05-12T01:28:20;98058.31;;;16.48;69.83
19259;BME280;9763;48.780;9.212;2023-05-12T01:31:45;98065.38;;;16.47;69.86
19259;BME280;9763;48.780;9.212;2023-05-12T01:35:11;98062.06;;;16.45;69.29
19259;BME280;9763;48.780;9.212;2023-05-12T01:38:41;98063.03;;;16.44;69.48
19259;BME280;9763;48.780;9.212;2023-05-12T01:42:06;98063.88;;;16.45;69.87
19259;BME280;9763;48.780;9.212;2023-05-12T01:45:31;98069.13;;;16.45;69.54
19259;BME280;9763;48.780;9.212;2023-05-12T01:48:55;98068.44;;;16.43;69.81
19259;BME280;9763;48.780;9.212;2023-05-12T01:52:19;98069.44;;;16.42;69.91
19259;BME280;9763;48.780;9.212;2023-05-12T01:55:43;98070.41;;;16.41;69.63
19259;BME280;9763;48.780;9.212;2023-05-12T01:59:07;98071.41;;;16.40;69.95
19259;BME280;9763;48.780;9.212;2023-05-12T02:02:33;98065.28;;;16.39;69.91
19259;BME280;9763;48.780;9.212;2023-05-12T02:05:57;98066.25;;;16.38;69.97
19259;BME280;9763;48.780;9.212;2023-05-12T02:09:21;98068.22;;;16.36;69.92
19259;BME280;9763;48.780;9.212;2023-05-12T02:12:46;98066.69;;;16.34;70.01
19259;BME280;9763;48.780;9.212;2023-05-12T02:16:11;98067.50;;;16.34;69.38
19259;BME280;9763;48.780;9.212;2023-05-12T02:19:36;98064.75;;;16.36;69.65
19259;BME280;9763;48.780;9.212;2023-05-12T02:23:00;98067.25;;;16.37;69.51
19259;BME280;9763;48.780;9.212;2023-05-12T02:26:25;98060.31;;;16.36;69.91
19259;BME280;9763;48.780;9.212;2023-05-12T02:29:50;98030.72;;;16.15;69.48
19259;BME280;9763;48.780;9.212;2023-05-12T02:33:14;98059.75;;;16.33;70.17
19259;BME280;9763;48.780;9.212;2023-05-12T02:36:39;98065.03;;;16.33;69.47
19259;BME280;9763;48.780;9.212;2023-05-12T02:40:04;98062.38;;;16.33;70.19
19259;BME280;9763;48.780;9.212;2023-05-12T02:43:29;98062.25;;;16.34;69.71
19259;BME280;9763;48.780;9.212;2023-05-12T02:46:52;98061.28;;;16.35;69.52
19259;BME280;9763;48.780;9.212;2023-05-12T02:50:17;98058.78;;;16.34;70.16
19259;BME280;9763;48.780;9.212;2023-05-12T02:53:43;98048.69;;;16.29;69.87
19259;BME280;9763;48.780;9.212;2023-05-12T02:57:07;98058.78;;;16.34;69.80
19259;BME280;9763;48.780;9.212;2023-05-12T03:00:32;98058.66;;;16.35;69.64
19259;BME280;9763;48.780;9.212;2023-05-12T03:03:56;98060.44;;;16.35;70.17
19259;BME280;9763;48.780;9.212;2023-05-12T03:07:20;98059.06;;;16.31;70.13
19259;BME280;9763;48.780;9.212;2023-05-12T03:10:45;98065.34;;;16.30;70.16
19259;BME280;9763;48.780;9.212;2023-05-12T03:14:09;98070.75;;;16.28;69.79
19259;BME280;9763;48.780;9.212;2023-05-12T03:17:34;98068.25;;;16.27;69.70
19259;BME280;9763;48.780;9.212;2023-05-12T03:20:58;98067.28;;;16.28;69.81
19259;BME280;9763;48.780;9.212;2023-05-12T03:24:21;98067.41;;;16.26;70.30
19259;BME280;9763;48.780;9.212;2023-05-12T03:27:46;98062.97;;;16.27;69.80
19259;BME280;9763;48.780;9.212;2023-05-12T03:31:10;98068.38;;;16.25;70.31
19259;BME280;9763;48.780;9.212;2023-05-12T03:34:34;98066.59;;;16.26;70.37
19259;BME280;9763;48.780;9.212;2023-05-12T03:37:57;98070.19;;;16.25;69.68
19259;BME280;9763;48.780;9.212;2023-05-12T03:41:21;98073.78;;;16.24;70.13
19259;BME280;9763;48.780;9.212;2023-05-12T03:44:47;98066.03;;;16.22;69.80
19259;BME280;9763;48.780;9.212;2023-05-12T03:48:11;98062.28;;;16.25;69.90
19259;BME280;9763;48.780;9.212;2023-05-12T03:51:35;98062.28;;;16.25;70.47
19259;BME280;9763;48.780;9.212;2023-05-12T03:54:59;98060.47;;;16.25;69.87
19259;BME280;9763;48.780;9.212;2023-05-12T03:58:23;98056.88;;;16.26;70.42
19259;BME280;9763;48.780;9.212;2023-05-12T04:01:48;98053.28;;;16.27;70.43
19259;BME280;9763;48.780;9.212;2023-05-12T04:05:12;98053.28;;;16.27;70.45
19259;BME280;9763;48.780;9.212;2023-05-12T04:08:36;98053.28;;;16.27;70.33
19259;BME280;9763;48.780;9.212;2023-05-12T04:12:04;98054.09;;;16.28;70.02
19259;BME280;9763;48.780;9.212;2023-05-12T04:15:28;98054.81;;;16.30;70.15
19259;BME280;9763;48.780;9.212;2023-05-12T04:18:53;98056.44;;;16.31;70.44
19259;BME280;9763;48.780;9.212;2023-05-12T04:22:18;98059.34;;;16.37;69.84
19259;BME280;9763;48.780;9.212;2023-05-12T04:25:46;98059.06;;;16.40;70.31
19259;BME280;9763;48.780;9.212;2023-05-12T04:29:10;98055.28;;;16.43;69.71
19259;BME280;9763;48.780;9.212;2023-05-12T04:32:35;98070.94;;;16.44;69.70
19259;BME280;9763;48.780;9.212;2023-05-12T04:36:01;98070.94;;;16.44;69.78
19259;BME280;9763;48.780;9.212;2023-05-12T04:39:26;98071.91;;;16.43;70.23
19259;BME280;9763;48.780;9.212;2023-05-12T04:42:51;98072.59;;;16.45;70.44
19259;BME280;9763;48.780;9.212;2023-05-12T04:46:15;98071.63;;;16.46;70.27
19259;BME280;9763;48.780;9.212;2023-05-12T04:49:39;98072.31;;;16.48;70.33
19259;BME280;9763;48.780;9.212;2023-05-12T04:53:04;98082.56;;;16.51;69.61
19259;BME280;9763;48.780;9.212;2023-05-12T04:56:27;98083.09;;;16.55;69.88
19259;BME280;9763;48.780;9.212;2023-05-12T04:59:51;98081.00;;;16.58;69.62
19259;BME280;9763;48.780;9.212;2023-05-12T05:03:15;98083.34;;;16.62;69.62
19259;BME280;9763;48.780;9.212;2023-05-12T05:06:39;98088.38;;;16.65;70.26
19259;BME280;9763;48.780;9.212;2023-05-12T05:10:06;98083.63;;;16.68;70.04
19259;BME280;9763;48.780;9.212;2023-05-12T05:13:31;98085.97;;;16.71;70.06
19259;BME280;9763;48.780;9.212;2023-05-12T05:16:54;98082.09;;;16.75;69.76
19259;BME280;9763;48.780;9.212;2023-05-12T05:20:19;98076.53;;;16.78;69.62
19259;BME280;9763;48.780;9.212;2023-05-12T05:23:50;98087.59;;;16.82;70.06
19259;BME280;9763;48.780;9.212;2023-05-12T05:27:16;98092.56;;;16.85;70.16
19259;BME280;9763;48.780;9.212;2023-05-12T05:30:40;98091.59;;;16.86;69.59
19259;BME280;9763;48.780;9.212;2023-05-12T05:34:04;98094.78;;;16.89;69.74
19259;BME280;9763;48.780;9.212;2023-05-12T05:37:28;98088.22;;;16.93;70.23
19259;BME280;9763;48.780;9.212;2023-05-12T05:40:53;98092.22;;;16.98;69.60
19259;BME280;9763;48.780;9.212;2023-05-12T05:44:19;98101.34;;;17.03;70.07
19259;BME280;9763;48.780;9.212;2023-05-12T05:47:44;98100.22;;;17.06;69.59
19259;BME280;9763;48.780;9.212;2023-05-12T05:51:08;98103.25;;;17.11;69.54
19259;BME280;9763;48.780;9.212;2023-05-12T05:54:33;98095.41;;;17.19;69.80
19259;BME280;9763;48.780;9.212;2023-05-12T05:57:58;98103.41;;;17.27;69.65
19259;BME280;9763;48.780;9.212;2023-05-12T06:01:23;98094.91;;;17.33;69.60
19259;BME280;9763;48.780;9.212;2023-05-12T06:04:47;98095.13;;;17.40;69.81
19259;BME280;9763;48.780;9.212;2023-05-12T06:08:11;98103.44;;;17.45;69.61
19259;BME280;9763;48.780;9.212;2023-05-12T06:11:35;98105.94;;;17.46;69.55
19259;BME280;9763;48.780;9.212;2023-05-12T06:14:59;98115.34;;;17.49;69.27
19259;BME280;9763;48.780;9.212;2023-05-12T06:18:24;98110.75;;;17.51;69.26
19259;BME280;9763;48.780;9.212;2023-05-12T06:21:48;98106.13;;;17.53;69.31
19259;BME280;9763;48.780;9.212;2023-05-12T06:25:13;98112.63;;;17.58;69.13
19259;BME280;9763;48.780;9.212;2023-05-12T06:28:37;98114.00;;;17.62;69.29
19259;BME280;9763;48.780;9.212;2023-05-12T06:32:01;98115.22;;;17.68;69.02
19259;BME280;9763;48.780;9.212;2023-05-12T06:35:27;98121.53;;;17.75;69.07
19259;BME280;9763;48.780;9.212;2023-05-12T06:38:52;98118.16;;;17.83;69.37
19259;BME280;9763;48.780;9.212;2023-05-12T06:42:15;98112.94;;;17.91;69.00
19259;BME280;9763;48.780;9.212;2023-05-12T06:45:45;98126.22;;;17.99;68.89
19259;BME280;9763;48.780;9.212;2023-05-12T06:49:08;98113.53;;;18.03;68.89
19259;BME280;9763;48.780;9.212;2023-05-12T06:52:34;98120.69;;;18.10;69.56
19259;BME280;9763;48.780;9.212;2023-05-12T06:55:58;98116.97;;;18.21;69.35
19259;BME280;9763;48.780;9.212;2023-05-12T06:59:22;98119.84;;;18.35;69.23
19259;BME280;9763;48.780;9.212;2023-05-12T07:02:46;98122.91;;;18.49;68.87
19259;BME280;9763;48.780;9.212;2023-05-12T07:06:10;98118.53;;;18.57;68.97
19259;BME280;9763;48.780;9.212;2023-05-12T07:09:35;98118.75;;;18.64;68.51
19259;BME280;9763;48.780;9.212;2023-05-12T07:12:58;98125.91;;;18.72;68.29
19259;BME280;9763;48.780;9.212;2023-05-12T07:16:23;98119.69;;;18.89;68.62
19259;BME280;9763;48.780;9.212;2023-05-12T07:19:47;98117.78;;;19.07;68.10
19259;BME280;9763;48.780;9.212;2023-05-12T07:23:10;98113.84;;;19.19;68.26
19259;BME280;9763;48.780;9.212;2023-05-12T07:26:35;98122.97;;;19.33;68.40
19259;BME280;9763;48.780;9.212;2023-05-12T07:29:59;98113.91;;;19.43;67.81
19259;BME280;9763;48.780;9.212;2023-05-12T07:33:24;98113.94;;;19.60;68.02
19259;BME280;9763;48.780;9.212;2023-05-12T07:36:48;98117.59;;;19.83;67.31
19259;BME280;9763;48.780;9.212;2023-05-12T07:40:12;98113.47;;;20.13;67.14
19259;BME280;9763;48.780;9.212;2023-05-12T07:43:37;98100.38;;;20.28;66.46
19259;BME280;9763;48.780;9.212;2023-05-12T07:47:01;98108.97;;;20.46;66.84
19259;BME280;9763;48.780;9.212;2023-05-12T07:50:26;98111.09;;;20.59;66.28
19259;BME280;9763;48.780;9.212;2023-05-12T07:53:50;98107.78;;;20.65;66.37
19259;BME280;9763;48.780;9.212;2023-05-12T07:57:14;98112.72;;;20.68;66.17
19259;BME280;9763;48.780;9.212;2023-05-12T08:00:39;98108.41;;;20.67;66.02
19259;BME280;9763;48.780;9.212;2023-05-12T08:04:04;98106.25;;;20.70;66.77
19259;BME280;9763;48.780;9.212;2023-05-12T08:07:28;98117.03;;;20.77;66.69
19259;BME280;9763;48.780;9.212;2023-05-12T08:10:52;98115.00;;;20.87;66.57
19259;BME280;9763;48.780;9.212;2023-05-12T08:14:15;98111.28;;;20.96;65.83
19259;BME280;9763;48.780;9.212;2023-05-12T08:17:40;98081.09;;;20.97;65.50
19259;BME280;9763;48.780;9.212;2023-05-12T08:21:04;98107.00;;;21.26;65.37
19259;BME280;9763;48.780;9.212;2023-05-12T08:24:28;98105.34;;;21.33;65.23
19259;BME280;9763;48.780;9.212;2023-05-12T08:27:52;98099.97;;;21.64;65.37
19259;BME280;9763;48.780;9.212;2023-05-12T08:31:16;98102.63;;;22.10;64.88
19259;BME280;9763;48.780;9.212;2023-05-12T08:34:42;98103.47;;;22.25;64.63
19259;BME280;9763;48.780;9.212;2023-05-12T08:38:06;98096.31;;;22.25;64.04
19259;BME280;9763;48.780;9.212;2023-05-12T08:41:39;98108.63;;;22.26;63.95
19259;BME280;9763;48.780;9.212;2023-05-12T08:45:06;98112.38;;;22.17;63.89
19259;BME280;9763;48.780;9.212;2023-05-12T08:48:33;98106.00;;;22.04;64.10
19259;BME280;9763;48.780;9.212;2023-05-12T08:52:01;98106.72;;;21.98;64.31
19259;BME280;9763;48.780;9.212;2023-05-12T08:55:25;98111.84;;;22.37;64.48
19259;BME280;9763;48.780;9.212;2023-05-12T08:58:55;98111.25;;;22.79;63.84
19259;BME280;9763;48.780;9.212;2023-05-12T09:02:20;98114.00;;;23.00;63.07
19259;BME280;9763;48.780;9.212;2023-05-12T09:05:46;98111.97;;;23.17;63.13
19259;BME280;9763;48.780;9.212;2023-05-12T09:09:12;98090.56;;;23.10;62.71
19259;BME280;9763;48.780;9.212;2023-05-12T09:12:37;98107.28;;;23.04;62.29
19259;BME280;9763;48.780;9.212;2023-05-12T09:16:03;98112.34;;;22.84;62.51
19259;BME280;9763;48.780;9.212;2023-05-12T09:19:30;98107.03;;;22.70;62.51
19259;BME280;9763;48.780;9.212;2023-05-12T09:22:54;98107.56;;;22.65;62.47
19259;BME280;9763;48.780;9.212;2023-05-12T09:26:21;98109.56;;;22.63;62.73
19259;BME280;9763;48.780;9.212;2023-05-12T09:29:48;98109.56;;;22.63;62.67
19259;BME280;9763;48.780;9.212;2023-05-12T09:33:21;98103.88;;;22.66;62.80
19259;BME280;9763;48.780;9.212;2023-05-12T09:36:55;98106.38;;;22.97;62.24
19259;BME280;9763;48.780;9.212;2023-05-12T09:40:19;98108.72;;;23.21;61.70
19259;BME280;9763;48.780;9.212;2023-05-12T09:43:47;98105.06;;;23.58;62.02
19259;BME280;9763;48.780;9.212;2023-05-12T09:47:11;98102.78;;;23.98;61.15
19259;BME280;9763;48.780;9.212;2023-05-12T09:50:49;98106.81;;;24.36;59.98
19259;BME280;9763;48.780;9.212;2023-05-12T09:54:23;98107.72;;;24.91;59.91
19259;BME280;9763;48.780;9.212;2023-05-12T09:57:48;98081.56;;;24.73;59.86
19259;BME280;9763;48.780;9.212;2023-05-12T10:01:16;98102.38;;;24.50;59.79
19259;BME280;9763;48.780;9.212;2023-05-12T10:04:49;98090.00;;;23.93;60.01
19259;BME280;9763;48.780;9.212;2023-05-12T10:08:23;98102.75;;;23.55;60.50
19259;BME280;9763;48.780;9.212;2023-05-12T10:11:50;98110.81;;;23.26;61.47
19259;BME280;9763;48.780;9.212;2023-05-12T10:15:16;98116.81;;;23.13;61.70
19259;BME280;9763;48.780;9.212;2023-05-12T10:18:42;98091.13;;;23.06;61.50
19259;BME280;9763;48.780;9.212;2023-05-12T10:22:09;98105.81;;;23.52;61.45
19259;BME280;9763;48.780;9.212;2023-05-12T10:25:33;98103.59;;;24.48;60.77
19259;BME280;9763;48.780;9.212;2023-05-12T10:28:57;98094.28;;;25.87;59.36
19259;BME280;9763;48.780;9.212;2023-05-12T10:32:22;98092.13;;;27.83;56.59
19259;BME280;9763;48.780;9.212;2023-05-12T10:35:47;98093.72;;;29.02;54.45
19259;BME280;9763;48.780;9.212;2023-05-12T10:39:12;98095.66;;;28.95;54.14
19259;BME280;9763;48.780;9.212;2023-05-12T10:42:39;98092.47;;;28.18;55.08
19259;BME280;9763;48.780;9.212;2023-05-12T10:46:16;98097.75;;;27.37;55.76
19259;BME280;9763;48.780;9.212;2023-05-12T10:49:40;98094.72;;;26.56;56.85
19259;BME280;9763;48.780;9.212;2023-05-12T10:53:10;98106.22;;;25.71;57.08
19259;BME280;9763;48.780;9.212;2023-05-12T10:56:43;98111.06;;;24.93;58.54
19259;BME280;9763;48.780;9.212;2023-05-12T11:00:12;98110.69;;;24.34;58.65
19259;BME280;9763;48.780;9.212;2023-05-12T11:03:37;98109.00;;;23.84;59.78
19259;BME280;9763;48.780;9.212;2023-05-12T11:07:04;98110.06;;;23.32;59.80
19259;BME280;9763;48.780;9.212;2023-05-12T11:10:31;98117.31;;;22.87;59.75
19259;BME280;9763;48.780;9.212;2023-05-12T11:13:55;98117.28;;;22.43;60.19
19259;BME280;9763;48.780;9.212;2023-05-12T11:17:19;98121.94;;;22.04;60.88
19259;BME280;9763;48.780;9.212;2023-05-12T11:20:44;98126.13;;;21.75;61.41
19259;BME280;9763;48.780;9.212;2023-05-12T11:24:08;98132.81;;;21.48;61.61
19259;BME280;9763;48.780;9.212;2023-05-12T11:27:37;98118.66;;;21.17;61.97
19259;BME280;9763;48.780;9.212;2023-05-12T11:31:04;98138.63;;;21.05;61.58
19259;BME280;9763;48.780;9.212;2023-05-12T11:34:28;98140.53;;;20.88;61.64
19259;BME280;9763;48.780;9.212;2023-05-12T11:37:52;98141.53;;;20.79;61.91
19259;BME280;9763;48.780;9.212;2023-05-12T11:41:21;98142.88;;;20.75;62.04
19259;BME280;9763;48.780;9.212;2023-05-12T11:44:48;98136.75;;;20.66;62.15
19259;BME280;9763;48.780;9.212;2023-05-12T11:48:13;98139.75;;;20.71;62.39
19259;BME280;9763;48.780;9.212;2023-05-12T11:51:41;98143.59;;;20.61;62.53
19259;BME280;9763;48.780;9.212;2023-05-12T11:55:05;98141.28;;;20.49;63.27
19259;BME280;9763;48.780;9.212;2023-05-12T11:58:30;98144.09;;;20.32;63.57
19259;BME280;9763;48.780;9.212;2023-05-12T12:01:59;98134.00;;;20.11;64.76
19259;BME280;9763;48.780;9.212;2023-05-12T12:05:23;98147.75;;;20.23;65.31
19259;BME280;9763;48.780;9.212;2023-05-12T12:08:52;98151.88;;;20.58;64.72
19259;BME280;9763;48.780;9.212;2023-05-12T12:12:16;98149.22;;;21.05;63.79
19259;BME280;9763;48.780;9.212;2023-05-12T12:15:40;98143.13;;;21.66;63.50
19259;BME280;9763;48.780;9.212;2023-05-12T12:19:05;98142.34;;;22.26;62.32
19259;BME280;9763;48.780;9.212;2023-05-12T12:22:30;98137.13;;;22.85;61.28
19259;BME280;9763;48.780;9.212;2023-05-12T12:25:56;98103.50;;;23.13;60.61
19259;BME280;9763;48.780;9.212;2023-05-12T12:29:19;98129.53;;;23.68;60.68
19259;BME280;9763;48.780;9.212;2023-05-12T12:32:45;98140.47;;;23.95;59.80
19259;BME280;9763;48.780;9.212;2023-05-12T12:36:10;98138.91;;;24.00;60.35
19259;BME280;9763;48.780;9.212;2023-05-12T12:39:33;98133.75;;;23.99;60.16
19259;BME280;9763;48.780;9.212;2023-05-12T12:42:57;98142.09;;;24.17;59.54
19259;BME280;9763;48.780;9.212;2023-05-12T12:46:21;98137.53;;;24.32;59.18
19259;BME280;9763;48.780;9.212;2023-05-12T12:49:44;98136.53;;;24.61;59.23
19259;BME280;9763;48.780;9.212;2023-05-12T12:53:09;98135.66;;;24.89;58.32
19259;BME280;9763;48.780;9.212;2023-05-12T12:56:33;98138.75;;;24.92;58.24
19259;BME280;9763;48.780;9.212;2023-05-12T12:59:57;98136.75;;;24.94;58.30
19259;BME280;9763;48.780;9.212;2023-05-12T13:03:22;98135.94;;;24.94;58.11
19259;BME280;9763;48.780;9.212;2023-05-12T13:06:46;98137.22;;;24.76;58.25
19259;BME280;9763;48.780;9.212;2023-05-12T13:10:12;98142.97;;;24.46;58.58
19259;BME280;9763;48.780;9.212;2023-05-12T13:13:36;98140.09;;;23.98;58.49
19259;BME280;9763;48.780;9.212;2023-05-12T13:17:00;98146.13;;;23.49;58.44
19259;BME280;9763;48.780;9.212;2023-05-12T13:20:25;98146.66;;;23.09;59.26
19259;BME280;9763;48.780;9.212;2023-05-12T13:23:50;98146.88;;;22.78;58.99
19259;BME280;9763;48.780;9.212;2023-05-12T13:27:15;98155.25;;;22.52;59.50
19259;BME280;9763;48.780;9.212;2023-05-12T13:30:38;98144.28;;;22.17;59.79
19259;BME280;9763;48.780;9.212;2023-05-12T13:34:02;98147.75;;;21.95;59.62
19259;BME280;9763;48.780;9.212;2023-05-12T13:37:26;98145.72;;;21.74;60.20
19259;BME280;9763;48.780;9.212;2023-05-12T13:40:50;98152.75;;;21.67;60.66
19259;BME280;9763;48.780;9.212;2023-05-12T13:44:16;98147.63;;;21.66;59.96
19259;BME280;9763;48.780;9.212;2023-05-12T13:47:41;98151.00;;;21.60;60.28
19259;BME280;9763;48.780;9.212;2023-05-12T13:51:05;98145.53;;;21.53;60.39
19259;BME280;9763;48.780;9.212;2023-05-12T13:54:29;98143.72;;;21.53;60.64
19259;BME280;9763;48.780;9.212;2023-05-12T13:57:53;98148.16;;;21.61;60.56
19259;BME280;9763;48.780;9.212;2023-05-12T14:01:19;98144.97;;;21.66;60.51
19259;BME280;9763;48.780;9.212;2023-05-12T14:04:44;98151.09;;;21.66;60.82
19259;BME280;9763;48.780;9.212;2023-05-12T14:08:08;98149.75;;;21.70;60.70
19259;BME280;9763;48.780;9.212;2023-05-12T14:11:32;98151.69;;;21.76;60.40
19259;BME280;9763;48.780;9.212;2023-05-12T14:14:56;98144.53;;;21.77;60.30
19259;BME280;9763;48.780;9.212;2023-05-12T14:18:42;98152.81;;;21.82;60.48
19259;BME280;9763;48.780;9.212;2023-05-12T14:22:06;98152.25;;;21.95;60.51
19259;BME280;9763;48.780;9.212;2023-05-12T14:25:47;98148.28;;;22.13;60.74
19259;BME280;9763;48.780;9.212;2023-05-12T14:29:11;98150.81;;;22.30;60.31
19259;BME280;9763;48.780;9.212;2023-05-12T14:32:35;98144.31;;;22.47;60.21
19259;BME280;9763;48.780;9.212;2023-05-12T14:36:00;98147.91;;;22.54;59.91
19259;BME280;9763;48.780;9.212;2023-05-12T14:39:29;98146.56;;;22.58;60.22
19259;BME280;9763;48.780;9.212;2023-05-12T14:42:53;98141.31;;;22.64;59.73
19259;BME280;9763;48.780;9.212;2023-05-12T14:46:17;98145.34;;;22.60;59.89
19259;BME280;9763;48.780;9.212;2023-05-12T14:49:42;98136.97;;;22.49;60.19
19259;BME280;9763;48.780;9.212;2023-05-12T14:53:08;98139.09;;;22.39;60.49
19259;BME280;9763;48.780;9.212;2023-05-12T14:56:32;98142.25;;;22.19;60.17
19259;BME280;9763;48.780;9.212;2023-05-12T14:59:56;98141.38;;;22.04;60.81
19259;BME280;9763;48.780;9.212;2023-05-12T15:03:20;98151.09;;;21.89;60.25
19259;BME280;9763;48.780;9.212;2023-05-12T15:06:44;98151.75;;;21.68;60.78
19259;BME280;9763;48.780;9.212;2023-05-12T15:10:10;98154.56;;;21.44;60.04
19259;BME280;9763;48.780;9.212;2023-05-12T15:13:34;98157.34;;;21.19;61.03
19259;BME280;9763;48.780;9.212;2023-05-12T15:16:58;98166.78;;;21.14;60.57
19259;BME280;9763;48.780;9.212;2023-05-12T15:20:21;98172.28;;;21.04;60.49
19259;BME280;9763;48.780;9.212;2023-05-12T15:23:45;98167.03;;;20.96;60.54
19259;BME280;9763;48.780;9.212;2023-05-12T15:27:10;98174.19;;;20.88;61.08
19259;BME280;9763;48.780;9.212;2023-05-12T15:30:34;98173.03;;;20.82;61.25
19259;BME280;9763;48.780;9.212;2023-05-12T15:33:58;98175.84;;;20.80;60.76
19259;BME280;9763;48.780;9.212;2023-05-12T15:37:23;98176.84;;;20.79;60.96
19259;BME280;9763;48.780;9.212;2023-05-12T15:40:47;98183.00;;;20.72;61.15
19259;BME280;9763;48.780;9.212;2023-05-12T15:44:12;98183.50;;;20.67;60.56
19259;BME280;9763;48.780;9.212;2023-05-12T15:47:38;98181.38;;;20.63;60.92
19259;BME280;9763;48.780;9.212;2023-05-12T15:51:02;98183.03;;;20.56;61.05
19259;BME280;9763;48.780;9.212;2023-05-12T15:54:26;98188.50;;;20.54;61.07
19259;BME280;9763;48.780;9.212;2023-05-12T15:57:50;98174.75;;;20.51;61.14
19259;BME280;9763;48.780;9.212;2023-05-12T16:01:16;98173.59;;;20.45;60.51
19259;BME280;9763;48.780;9.212;2023-05-12T16:04:40;98175.28;;;20.38;60.98
19259;BME280;9763;48.780;9.212;2023-05-12T16:08:04;98174.91;;;20.33;60.65
19259;BME280;9763;48.780;9.212;2023-05-12T16:11:28;98183.38;;;20.28;61.03
19259;BME280;9763;48.780;9.212;2023-05-12T16:14:52;98182.88;;;20.25;61.05
19259;BME280;9763;48.780;9.212;2023-05-12T16:18:17;98170.75;;;20.06;60.85
19259;BME280;9763;48.780;9.212;2023-05-12T16:21:41;98181.56;;;20.04;61.24
19259;BME280;9763;48.780;9.212;2023-05-12T16:25:06;98178.56;;;19.91;60.87
19259;BME280;9763;48.780;9.212;2023-05-12T16:28:30;98181.03;;;19.76;61.66
19259;BME280;9763;48.780;9.212;2023-05-12T16:31:56;98187.63;;;19.64;61.04
19259;BME280;9763;48.780;9.212;2023-05-12T16:35:21;98190.56;;;19.53;61.95
19259;BME280;9763;48.780;9.212;2023-05-12T16:38:45;98154.22;;;19.29;61.96
19259;BME280;9763;48.780;9.212;2023-05-12T16:42:09;98187.50;;;19.40;61.94
19259;BME280;9763;48.780;9.212;2023-05-12T16:45:33;98189.47;;;19.30;62.18
19259;BME280;9763;48.780;9.212;2023-05-12T16:48:57;98190.09;;;19.24;61.63
19259;BME280;9763;48.780;9.212;2023-05-12T16:52:22;98185.78;;;19.23;62.21
19259;BME280;9763;48.780;9.212;2023-05-12T16:55:46;98183.97;;;19.23;62.27
19259;BME280;9763;48.780;9.212;2023-05-12T16:59:10;98185.78;;;19.23;61.93
19259;BME280;9763;48.780;9.212;2023-05-12T17:02:36;98199.84;;;19.23;61.91
19259;BME280;9763;48.780;9.212;2023-05-12T17:06:03;98193.88;;;19.21;61.87
19259;BME280;9763;48.780;9.212;2023-05-12T17:09:27;98197.69;;;19.19;62.81
19259;BME280;9763;48.780;9.212;2023-05-12T17:12:51;98193.53;;;19.16;62.58
19259;BME280;9763;48.780;9.212;2023-05-12T17:16:15;98204.59;;;19.12;61.87
19259;BME280;9763;48.780;9.212;2023-05-12T17:19:39;98201.63;;;19.06;62.35
19259;BME280;9763;48.780;9.212;2023-05-12T17:23:04;98212.19;;;19.06;62.54
19259;BME280;9763;48.780;9.212;2023-05-12T17:26:30;98202.59;;;19.05;61.97
19259;BME280;9763;48.780;9.212;2023-05-12T17:29:54;98211.84;;;19.10;62.07
19259;BME280;9763;48.780;9.212;2023-05-12T17:33:21;98215.19;;;19.12;62.10
19259;BME280;9763;48.780;9.212;2023-05-12T17:36:45;98216.84;;;19.13;62.53
19259;BME280;9763;48.780;9.212;2023-05-12T17:40:14;98207.09;;;19.13;62.49
19259;BME280;9763;48.780;9.212;2023-05-12T17:43:40;98223.31;;;19.18;62.47
19259;BME280;9763;48.780;9.212;2023-05-12T17:47:04;98216.22;;;19.19;62.16
19259;BME280;9763;48.780;9.212;2023-05-12T17:50:29;98221.81;;;19.16;62.75
19259;BME280;9763;48.780;9.212;2023-05-12T17:53:53;98221.97;;;19.14;62.86
19259;BME280;9763;48.780;9.212;2023-05-12T17:57:16;98232.38;;;19.08;62.18
19259;BME280;9763;48.780;9.212;2023-05-12T18:00:41;98230.50;;;19.00;62.79
19259;BME280;9763;48.780;9.212;2023-05-12T18:04:05;98232.28;;;18.91;62.71
19259;BME280;9763;48.780;9.212;2023-05-12T18:07:29;98236.34;;;18.86;62.52
19259;BME280;9763;48.780;9.212;2023-05-12T18:10:53;98225.16;;;18.66;62.85
19259;BME280;9763;48.780;9.212;2023-05-12T18:14:16;98233.78;;;18.68;62.76
19259;BME280;9763;48.780;9.212;2023-05-12T18:17:41;98238.38;;;18.66;63.37
19259;BME280;9763;48.780;9.212;2023-05-12T18:21:05;98236.03;;;18.63;63.52